Aviation Digital Data Service (ADDS)

Output produced by METARs form (1416 UTC 21 January 2018)
found at http://aviationweather.gov/adds/metars/
 
METAR text: KRTS 211355Z AUTO 34004KT 10SM SCT095 BKN120 M08/M10 A3026 RMK AO2
Conditions at: KRTS (RENO/STEAD , NV, US) observed 1355 UTC 21 January 2018
Temperature: -8.0°C (18°F)
Dewpoint: -10.0°C (14°F) [RH = 85%]
Pressure (altimeter): 30.26 inches Hg (1024.8 mb)
Winds: from the NNW (340 degrees) at 5 MPH (4 knots; 2.1 m/s)
Visibility: 10 or more miles (16+ km)
Ceiling: 12000 feet AGL
Clouds: scattered clouds at 9500 feet AGL
broken clouds at 12000 feet AGL
Weather: automated observation with no human augmentation;
there may or may not be significant weather present at this time